Latest Weather Observations for Macquarie Island

IDT60801

Issued at 9:01 pm EST Wednesday 29 July 2015 (issued every 30 minutes, with the page automatically refreshed every 10 minutes)

About weather observations | Map of weather stations | Latest weather observations for TAS | Other Formats
Station Details ID: 300004 Name: MACQUARIE ISLAND Lat: -54.50 Lon: 158.94 Height: 6.0 m
Data from the previous 72 hours. | See also: Recent months at Macquarie Island
Date/Time
EST
Temp
°C
App
Temp
°C
Dew
Point
Rel
Hum
%
Delta-T
°C
Wind Press
QNH
hPa
Press
MSL
hPa
Rain
since 9 am
mm
Dir
 
Spd
km/h
Gust
km/h
Spd
kts
Gust
kts
29/09:00pm 4.9 -6.7 4.0 94 0.4 NNW 54 63 29 34 997.7 - 0.8
29/08:30pm 5.0 -7.1 4.1 94 0.4 NNW 57 69 31 37 997.7 - 0.8
29/08:00pm 4.9 -5.9 4.0 94 0.4 NNW 50 59 27 32 998.0 - 0.8
29/07:30pm 4.8 -6.0 4.1 95 0.3 NNW 50 61 27 33 998.2 - 0.8
29/07:00pm 4.8 -6.4 4.1 95 0.3 NNW 52 61 28 33 998.3 - 0.8
29/06:30pm 4.9 -6.6 4.3 96 0.3 NNW 54 63 29 34 998.2 - 0.8
29/06:00pm 4.8 -5.6 4.2 96 0.3 NW 48 67 26 36 998.4 998.7 0.8
29/05:30pm 4.7 -5.7 4.1 96 0.3 NNW 48 57 26 31 998.5 - 0.8
29/05:00pm 4.8 -6.0 4.2 96 0.3 NW 50 59 27 32 998.4 - 0.8
29/04:30pm 4.8 -6.0 4.2 96 0.3 NW 50 61 27 33 998.6 - 0.6
29/04:00pm 4.7 -6.5 4.1 96 0.3 NNW 52 59 28 32 998.7 - 0.6
29/03:30pm 4.7 -6.1 4.1 96 0.3 NNW 50 59 27 32 998.7 - 0.4
29/03:00pm 4.7 -6.1 4.1 96 0.3 NW 50 59 27 32 998.8 999.1 0.4
29/02:30pm 4.8 -6.0 4.2 96 0.3 NW 50 61 27 33 998.9 - 0.2
29/02:00pm 4.7 -6.5 4.1 96 0.3 NW 52 61 28 33 999.0 - 0.2
29/01:30pm 4.8 -5.2 4.2 96 0.3 NW 46 59 25 32 999.2 - 0.2
29/01:14pm 4.8 -5.2 4.1 95 0.3 NW 46 65 25 35 999.3 - 0.2
29/01:00pm 4.8 -5.6 4.1 95 0.3 NW 48 61 26 33 999.4 - 0.2
29/12:30pm 4.7 -5.4 4.0 95 0.3 NW 46 59 25 32 999.6 - 0.2
29/12:00pm 4.8 -5.6 4.1 95 0.3 NW 48 61 26 33 999.8 1000.1 0.2
29/11:33am 4.8 -6.4 4.1 95 0.3 NW 52 70 28 38 1000.0 - 0.2
29/11:30am 4.8 -7.1 4.1 95 0.3 NW 56 70 30 38 1000.0 - 0.2
29/11:00am 4.6 -7.6 3.9 95 0.3 NW 57 72 31 39 1000.2 - 0.2
29/10:30am 4.5 -8.5 3.6 94 0.4 NNW 61 74 33 40 1000.5 - 0.2
29/10:00am 4.2 -8.8 3.3 94 0.4 NNW 61 72 33 39 1000.9 - 0.2
29/09:30am 3.9 -8.8 2.9 93 0.4 NNW 59 70 32 38 1001.2 - 0.2
29/09:00am 3.9 -9.3 2.6 91 0.5 NNW 61 74 33 40 1001.6 1001.9 1.0
29/08:30am 3.9 -8.6 2.3 89 0.6 NNW 57 69 31 37 1002.1 - 0.8
29/08:00am 3.8 -7.0 2.2 89 0.6 NNW 48 56 26 30 1003.1 - 0.4
29/07:30am 3.6 -6.5 1.6 87 0.8 NNW 44 50 24 27 1003.8 - 0.4
29/07:00am 3.5 -6.1 1.2 85 0.9 NNW 41 48 22 26 1004.4 - 0.4
29/06:30am 3.4 -5.4 1.1 85 0.9 NW 37 44 20 24 1004.8 - 0.4
29/06:00am 3.6 -4.9 0.8 82 1.1 NW 35 43 19 23 1004.7 1005.0 0.4
29/05:30am 3.5 -5.4 0.7 82 1.1 NW 37 44 20 24 1005.0 - 0.4
29/05:00am 3.4 -5.1 0.8 83 1.0 NW 35 41 19 22 1005.2 - 0.4
29/04:30am 3.4 -4.5 0.8 83 1.0 WNW 32 37 17 20 1005.3 - 0.4
29/04:00am 3.4 -4.8 0.5 81 1.1 WNW 33 43 18 23 1005.3 - 0.4
29/03:30am 3.3 -4.3 0.4 81 1.1 WNW 30 35 16 19 1005.2 - 0.4
29/03:00am 3.7 -6.5 -0.5 74 1.6 W 43 59 23 32 1005.3 1005.6 0.4
29/02:51am 3.6 -6.4 -1.3 70 1.8 W 41 59 22 32 1005.2 - 0.4
29/02:30am 3.5 -6.3 -0.1 77 1.3 WNW 41 52 22 28 1005.2 - 0.4
29/02:00am 3.2 -6.2 0.1 80 1.2 WNW 39 50 21 27 1004.9 - 0.4
29/01:30am 3.0 -7.7 0.4 83 1.0 WNW 46 57 25 31 1004.9 - 0.4
29/01:16am 2.9 -8.2 0.0 81 1.1 WNW 48 67 26 36 1004.4 - 0.4
29/01:00am 3.4 -6.3 0.5 81 1.1 WNW 41 50 22 27 1004.2 - 0.4
29/12:30am 3.4 -6.9 0.1 79 1.2 NW 44 57 24 31 1003.7 - 0.4
29/12:00am 3.1 -6.6 0.2 81 1.1 WNW 41 48 22 26 1003.8 1004.1 0.4
 
Date/Time
EST
Temp
°C
App
Temp
°C
Dew
Point
Rel
Hum
%
Delta-T
°C
Wind Press
QNH
hPa
Press
MSL
hPa
Rain
since 9 am
mm
Dir
 
Spd
km/h
Gust
km/h
Spd
kts
Gust
kts
28/11:30pm 3.0 -6.0 -0.1 80 1.1 WNW 37 44 20 24 1003.9 - 0.4
28/11:00pm 2.1 -4.8 0.3 88 0.7 WNW 26 35 14 19 1004.0 - 0.4
28/10:46pm 1.8 -6.8 0.0 88 0.7 W 35 39 19 21 1004.0 - 0.4
28/10:30pm 1.4 -8.1 -0.5 87 0.7 WSW 39 52 21 28 1004.1 - 0.4
28/10:22pm 2.3 -6.1 -0.8 80 1.1 W 33 52 18 28 1004.0 - 0.2
28/10:21pm 3.1 -4.2 -0.2 79 1.2 W 28 39 15 21 1003.9 - 0.2
28/10:00pm 2.9 -6.2 -0.5 78 1.2 WNW 37 46 20 25 1003.5 - 0.2
28/09:30pm 2.6 -5.6 -1.0 77 1.3 WNW 32 41 17 22 1003.5 - 0.2
28/09:00pm 2.6 -5.6 -0.8 78 1.2 W 32 41 17 22 1003.5 1003.8 0.2
28/08:30pm 2.6 -7.4 -1.6 74 1.5 W 41 48 22 26 1003.3 - 0.2
28/08:00pm 2.7 -6.9 -1.5 74 1.5 W 39 48 21 26 1003.0 - 0.2
28/07:30pm 2.1 -6.1 -0.8 81 1.0 W 32 41 17 22 1002.9 - 0.2
28/07:00pm 2.2 -5.7 -1.2 78 1.2 W 30 43 16 23 1002.8 - 0.2
28/06:43pm 1.8 -6.8 -2.3 74 1.4 W 33 52 18 28 1002.7 - 0.2
28/06:30pm 2.3 -6.5 -1.3 77 1.3 W 35 41 19 22 1002.3 - 0.2
28/06:00pm 2.1 -6.1 -1.2 79 1.2 W 32 41 17 22 1002.0 1002.3 0.2
28/05:30pm 2.4 -6.5 -2.1 72 1.6 W 35 44 19 24 1001.6 - 0.2
28/05:00pm 2.5 -5.1 -2.0 72 1.6 W 28 57 15 31 1001.3 - 0.2
28/04:30pm 2.4 -6.1 -2.1 72 1.6 W 33 56 18 30 1000.8 - 0.2
28/04:04pm 2.4 -6.0 -1.2 77 1.3 W 33 52 18 28 1000.6 - 0.2
28/04:00pm 2.4 -6.4 -1.4 76 1.3 W 35 52 19 28 1000.6 - 0.2
28/03:40pm 2.6 -4.9 -1.2 76 1.4 W 28 59 15 32 1000.4 - 0.2
28/03:30pm 2.4 -3.6 -1.9 73 1.5 W 20 35 11 19 1000.2 - 0.2
28/03:00pm 2.3 -4.2 -2.6 70 1.7 WSW 22 39 12 21 999.9 1000.2 0.2
28/02:30pm 2.4 -5.3 -3.3 66 1.9 WSW 28 50 15 27 999.7 - 0.2
28/02:28pm 2.4 -5.3 -3.1 67 1.9 WSW 28 50 15 27 999.7 - 0.2
28/02:00pm 2.3 -5.7 -2.2 72 1.6 WSW 30 43 16 23 999.2 - 0.2
28/01:30pm 2.1 -6.3 -2.8 70 1.7 SW 32 57 17 31 998.8 - 0.2
28/01:00pm 2.1 -5.9 -2.2 73 1.5 WSW 30 48 16 26 998.4 - 0.2
28/12:30pm 2.1 -5.1 -1.9 75 1.4 WSW 26 44 14 24 997.7 - 0.2
28/12:00pm 2.4 -4.6 -0.7 80 1.1 SW 26 46 14 25 997.1 997.4 0.2
28/11:30am 2.1 -5.6 0.0 86 0.8 SW 30 52 16 28 996.7 - 0.2
28/11:00am 2.9 -4.2 1.3 89 0.6 WSW 28 48 15 26 996.2 - 0.2
28/10:30am 3.1 -3.9 1.9 92 0.5 WSW 28 50 15 27 995.7 - 0.2
28/10:04am 3.3 -4.0 2.3 93 0.4 WSW 30 48 16 26 995.2 - 0.2
28/10:03am 3.3 -4.4 2.3 93 0.4 WSW 32 48 17 26 995.2 - 0.2
28/10:01am 3.4 -5.2 2.5 94 0.4 W 37 56 20 30 995.1 - 0.2
28/10:00am 3.4 -5.6 2.5 94 0.4 W 39 56 21 30 995.1 - 0.2
28/09:30am 3.9 -5.0 3.3 96 0.2 W 39 52 21 28 994.7 - 0.0
28/09:29am 3.9 -4.6 3.3 96 0.2 W 37 52 20 28 994.6 - 0.0
28/09:00am 3.7 -4.4 3.1 96 0.2 NW 35 41 19 22 994.4 994.7 8.4
28/08:30am 3.5 -3.7 2.9 96 0.2 NW 30 39 16 21 994.3 - 8.4
28/08:00am 3.2 -5.4 2.6 96 0.2 NNW 37 43 20 23 994.2 - 8.4
28/07:30am 2.9 -4.8 2.2 95 0.3 NNW 32 41 17 22 994.7 - 8.4
28/07:00am 2.7 -5.7 1.5 92 0.5 NW 35 43 19 23 994.8 - 8.4
28/06:30am 2.6 -6.2 1.6 93 0.4 NW 37 43 20 23 995.1 - 8.2
28/06:00am 2.6 -6.2 1.3 91 0.5 WNW 37 43 20 23 995.2 995.5 8.0
28/05:30am 2.5 -6.0 1.0 90 0.6 WNW 35 41 19 22 995.4 - 7.6
28/05:00am 2.4 -5.8 0.5 87 0.7 WNW 33 39 18 21 995.7 - 7.6
28/04:30am 2.1 -6.0 -0.3 84 0.9 WNW 32 37 17 20 995.9 - 7.6
28/04:00am 1.7 -6.4 -0.5 85 0.8 WNW 32 35 17 19 995.9 - 7.6
28/03:30am 1.3 -5.8 -1.1 84 0.8 WNW 26 30 14 16 996.4 - 7.6
28/03:00am 1.0 -7.3 -1.6 83 0.9 WNW 32 37 17 20 996.4 996.7 7.6
28/02:30am 0.8 -8.1 -1.8 83 0.9 W 35 41 19 22 996.7 - 7.6
28/02:00am 0.6 -7.7 -1.8 84 0.9 W 32 39 17 21 996.8 - 7.6
28/01:30am 0.4 -7.6 -2.1 83 0.9 WSW 30 41 16 22 997.0 - 7.6
28/01:00am 0.1 -6.4 -2.1 85 0.8 WSW 22 35 12 19 996.8 - 7.6
28/12:31am 0.0 -9.6 -1.7 88 0.6 WSW 39 57 21 31 996.4 - 7.6
28/12:30am -0.1 -10.1 -1.8 88 0.6 WSW 41 57 22 31 996.4 - 7.6
28/12:01am 0.0 -9.6 -1.3 91 0.5 WSW 39 57 21 31 996.4 - 7.6
28/12:00am -0.1 -10.1 -1.4 91 0.5 WSW 41 57 22 31 996.4 996.7 7.6
 
Date/Time
EST
Temp
°C
App
Temp
°C
Dew
Point
Rel
Hum
%
Delta-T
°C
Wind Press
QNH
hPa
Press
MSL
hPa
Rain
since 9 am
mm
Dir
 
Spd
km/h
Gust
km/h
Spd
kts
Gust
kts
27/11:30pm 0.1 -9.0 -0.9 93 0.4 WSW 37 48 20 26 996.8 - 7.6
27/11:00pm 0.4 -9.1 -0.4 94 0.3 WSW 39 50 21 27 996.8 - 7.6
27/10:30pm 0.5 -8.6 -0.4 94 0.3 SW 37 50 20 27 997.0 - 7.6
27/10:00pm 0.9 -7.7 0.0 94 0.3 SW 35 50 19 27 996.8 - 7.6
27/09:30pm 1.4 -6.8 0.4 93 0.4 SW 33 46 18 25 996.7 - 7.6
27/09:00pm 1.6 -6.0 0.6 93 0.4 SW 30 43 16 23 996.7 997.0 7.6
27/08:30pm 2.1 -3.9 0.9 92 0.5 SW 22 35 12 19 996.8 - 7.6
27/08:00pm 2.5 -2.9 1.2 91 0.5 SW 19 26 10 14 996.7 - 7.6
27/07:30pm 3.1 -2.5 1.5 89 0.6 SW 20 28 11 15 996.6 - 7.6
27/07:00pm 3.3 -3.0 1.8 90 0.6 S 24 32 13 17 996.4 - 7.6
27/06:30pm 3.3 -2.9 2.0 91 0.5 S 24 33 13 18 996.2 - 7.6
27/06:00pm 3.2 -4.2 2.0 92 0.5 S 30 39 16 21 996.1 996.4 7.6
27/05:30pm 3.0 -4.9 2.1 94 0.4 S 33 41 18 22 995.8 - 7.6
27/05:00pm 3.1 -5.9 2.4 95 0.3 S 39 46 21 25 995.4 - 7.6
27/04:30pm 3.1 -5.9 2.2 94 0.4 S 39 46 21 25 995.2 - 7.4
27/04:00pm 3.1 -5.6 2.2 94 0.4 S 37 48 20 26 995.1 - 7.4
27/03:30pm 3.0 -6.5 2.0 93 0.4 S 41 52 22 28 995.3 - 7.2
27/03:00pm 3.0 -6.9 1.8 92 0.5 S 43 56 23 30 995.0 995.3 7.2
27/02:30pm 2.9 -6.6 1.9 93 0.4 S 41 50 22 27 994.7 - 7.2
27/02:00pm 3.1 -5.9 2.2 94 0.4 S 39 52 21 28 994.6 - 7.2
27/01:30pm 3.3 -6.1 2.4 94 0.4 SSE 41 48 22 26 994.4 - 7.2
27/01:00pm 3.3 -5.0 2.3 93 0.4 SSE 35 44 19 24 994.7 - 7.2
27/12:30pm 3.2 -5.9 2.0 92 0.5 SSE 39 46 21 25 994.7 - 6.8
27/12:00pm 3.1 -6.4 1.8 91 0.5 SSE 41 48 22 26 994.8 995.1 5.2
27/11:30am 2.9 -5.9 1.6 91 0.5 SSE 37 44 20 24 995.1 - 4.2
27/11:00am 3.2 -4.2 1.9 91 0.5 SE 30 37 16 20 995.3 - 2.8
27/10:30am 3.3 -3.7 2.1 92 0.5 SE 28 33 15 18 995.5 - 1.6
27/10:00am 3.7 -2.7 3.0 95 0.3 SSE 26 32 14 17 995.7 - 0.8
27/09:30am 3.7 -2.7 3.0 95 0.3 SE 26 30 14 16 995.6 - 0.4
27/09:00am 3.7 -2.4 2.8 94 0.4 SE 24 28 13 15 995.6 995.9 1.0
27/08:30am 3.7 -2.8 2.8 94 0.4 SE 26 32 14 17 995.7 - 0.6
27/08:00am 3.7 -2.8 2.7 93 0.4 SE 26 32 14 17 995.7 - 0.2
27/07:30am 3.7 -2.4 2.7 93 0.4 SE 24 30 13 16 995.8 - 0.2
27/07:00am 3.7 -2.4 2.7 93 0.4 SE 24 28 13 15 995.7 - 0.0
27/06:30am 3.7 -2.4 2.7 93 0.4 ESE 24 30 13 16 995.9 - 0.0
27/06:00am 3.7 -2.4 2.7 93 0.4 ESE 24 28 13 15 995.8 996.1 0.0
27/05:30am 3.6 -1.8 2.7 94 0.4 ESE 20 24 11 13 995.8 - 0.0
27/05:00am 3.6 -1.6 2.6 93 0.4 ESE 19 24 10 13 995.9 - 0.0
27/04:30am 3.6 -0.4 2.6 93 0.4 ESE 13 15 7 8 996.1 - 0.0
27/04:00am 3.5 -0.6 2.5 93 0.4 SSE 13 15 7 8 996.0 - 0.0
27/03:30am 3.6 -0.4 2.6 93 0.4 SE 13 15 7 8 996.2 - 0.0
27/03:00am 3.6 0.7 2.4 92 0.5 SE 7 13 4 7 996.4 996.7 0.0
27/02:30am 3.9 1.2 2.7 92 0.5 NNE 6 11 3 6 996.6 - 0.0
27/02:00am 3.8 -0.2 2.8 93 0.4 N 13 28 7 15 996.7 - 0.0
27/01:30am 3.0 1.0 2.1 94 0.4 WNW 2 7 1 4 996.8 - 0.0
27/01:00am 3.1 0.7 2.2 94 0.4 WNW 4 9 2 5 996.7 - 0.0
27/12:30am 3.2 -0.1 2.3 94 0.4 WNW 9 9 5 5 996.9 - 0.0
27/12:00am 3.2 0.2 2.3 94 0.4 NW 7 9 4 5 996.8 997.1 0.0
 
Date/Time
EST
Temp
°C
App
Temp
°C
Dew
Point
Rel
Hum
%
Delta-T
°C
Wind Press
QNH
hPa
Press
MSL
hPa
Rain
since 9 am
mm
Dir
 
Spd
km/h
Gust
km/h
Spd
kts
Gust
kts
26/11:30pm 3.2 -0.1 2.3 94 0.4 NW 9 11 5 6 996.7 - 0.0
26/11:00pm 3.6 -0.4 2.7 94 0.4 NNW 13 17 7 9 997.0 - 0.0
26/10:30pm 3.7 -1.1 2.8 94 0.4 N 17 22 9 12 997.0 - 0.0
26/10:00pm 3.5 -0.9 2.6 94 0.4 N 15 17 8 9 997.1 - 0.0
26/09:30pm 3.5 0.2 2.6 94 0.4 NNW 9 11 5 6 997.1 - 0.0

Other Formats:

Comma delimited format used in spreadsheet applications
http://www.bom.gov.au/fwo/IDT60801/IDT60801.94998.axf

JavaScript Object Notation format (JSON) in row-major order
http://www.bom.gov.au/fwo/IDT60801/IDT60801.94998.json